Rijeka, Croatia

9:48 AM CEST on August 20, 2014 (GMT +0200)
Rijeka | Change Station
CLOSE
Current Station
Airport
Location: Rijeka,
Elevation: 279 ft
Nearby Weather Stations

Elev 279 ft 45.22 °N, 14.57 °E | Updated 18 minutes ago

Scattered Clouds
Scattered Clouds
68 °F
Feels Like 68 °F
N
1
Wind Variable Wind from Variable

Today
High -- | Low -- °F
--% Chance of Precip.
Yesterday
High -- | Low -- °F
Precip. -- in
6:08 AM 8:00 PM
Waning Crescent, 23% visible
Pressure 29.95 in
Visibility 6.2 miles
Clouds Few 2300 ft
Scattered Clouds 4700 ft
Dew Point 66 °F
Humidity 94%
Rainfall 0.00 in
Snow Depth Not available.
UV 3 out of 12
Pollen Not available.
Air Quality Not available.
Flu Activity Not available.
METAR LDRI 200730Z VRB01KT 9999 FEW023 SCT047 20/19 Q1014

More Conditions Fewer Conditions

Pressure 29.95 in
Visibility 6.2 miles
Clouds Few 2300 ft
Scattered Clouds 4700 ft
Dew Point 66 °F
Humidity 94%
Rainfall 0.00 in
Snow Depth Not available.
UV 3 out of 12
Pollen Not available.
Air Quality Not available.
Flu Activity Not available.
METAR LDRI 200730Z VRB01KT 9999 FEW023 SCT047 20/19 Q1014

More Conditions Fewer Conditions

10-Day Weather Forecast

Almanac

Astronomy

Aug. 20, 2014 Rise Set
Actual Time 6:08 AM CEST 8:00 PM CEST
Civil Twilight 5:37 AM CEST 8:32 PM CEST
Nautical Twilight 4:58 AM CEST 9:10 PM CEST
Astronomical Twilight 4:16 AM CEST 9:52 PM CEST
Moon 1:29 AM CEST 4:37 PM CEST
Length of Visible Light 14h 55m
Length of Day
13h 52m
Tomorrow will be 2m 54s shorter.
Waning Crescent, 23% of the Moon is Illuminated
Today
Waning Crescent
Aug 25
New
Sep 2
First Quarter
Sep 8
Full
Sep 15
Last Quarter

Yesterday's Extremes

Country Highs Country Lows

Community

WunderPhotos

Upload Photos

1,745,592 photos uploaded!

Nearby

Snow Depth

Not available.

Earthquake Activity

City Distance Mag. Time & Date
No recent earthquake activity has been reported nearby.
Minimum magnitude displayed is 2.5.

Coastal Water Temperatures

Place Temperature
No Stations Reporting

Nearby Weather Stations